This is the latest recevied weather packets stored in our database for station/object ED2YAA-3. If no packets are shown the sender has not sent any weather packets the latest 10 day(s).
| Time | Temp. | Humidity | Pressure | Rain* | Wind** | Luminosity | Snow |
|---|---|---|---|---|---|---|---|
| 1777617325 | 16.11° C | 82% | 998.7 hPa | 0 mm | - | - | - |
| 1777615386 | 15.56° C | 83% | 998.7 hPa | 0 mm | - | - | - |
| 1777613723 | 15.56° C | 83% | 998.6 hPa | 0 mm | - | - | - |
| 1777611786 | 15.56° C | 83% | 998.5 hPa | 0 mm | - | - | - |
| 1777610124 | 15.56° C | 82% | 998.4 hPa | 0 mm | - | - | - |
| 1777608186 | 15.56° C | 82% | 998.3 hPa | 0 mm | - | - | - |
| 1777606523 | 15.56° C | 82% | 998.4 hPa | 0 mm | - | - | - |
| 1777604584 | 15.56° C | 81% | 998.5 hPa | 0 mm | - | - | - |
| 1777602923 | 15.56° C | 82% | 998.4 hPa | 0 mm | - | - | - |
| 1777600986 | 15.56° C | 82% | 998.6 hPa | 0 mm | - | - | - |
| 1777599322 | 15° C | 82% | 998.7 hPa | 0 mm | - | - | - |
| 1777597385 | 15° C | 82% | 999 hPa | 0 mm | - | - | - |
| 1777595722 | 14.44° C | 82% | 998.9 hPa | 0 mm | - | - | - |
| 1777593785 | 14.44° C | 82% | 998.9 hPa | 0 mm | - | - | - |
| 1777592121 | 15° C | 81% | 999.1 hPa | 0 mm | - | - | - |
| 1777590185 | 15° C | 80% | 999 hPa | 0 mm | - | - | - |
| 1777588856 | 15.56° C | 79% | 998.8 hPa | 0 mm | - | - | - |
| 1777588521 | 15.56° C | 79% | 998.7 hPa | 0 mm | - | - | - |
| 1777585256 | 16.67° C | 76% | 998.6 hPa | 0 mm | - | - | - |
| 1777584921 | 16.67° C | 76% | 998.7 hPa | 0 mm | - | - | - |
| 1777581655 | 17.22° C | 75% | 998.6 hPa | 0 mm | - | - | - |
| 1777581322 | 17.22° C | 75% | 998.5 hPa | 0 mm | - | - | - |
| 1777578055 | 18.33° C | 66% | 997.6 hPa | 0 mm | - | - | - |
| 1777577722 | 18.89° C | 65% | 997.5 hPa | 0 mm | - | - | - |
| 1777574454 | 19.44° C | 63% | 997.3 hPa | 0 mm | - | - | - |
* Rain latest hour (hover to see other rain measurements)
** Current wind speed in m/s (hover to see current wind gust speed)